createdAt,value
2018-02-22T00:00:01.270Z,-1.85
2018-02-22T00:00:05.499Z,-1.89
2018-02-22T00:00:09.308Z,-1.95
2018-02-22T00:00:13.457Z,-1.83
2018-02-22T00:00:17.374Z,-1.83
2018-02-22T00:00:21.503Z,-1.9
2018-02-22T00:00:25.521Z,-1.88
2018-02-22T00:00:29.646Z,-1.85
2018-02-22T00:00:33.465Z,-1.9
2018-02-22T00:00:37.719Z,-1.93
2018-02-22T00:00:41.633Z,-1.85
2018-02-22T00:00:45.664Z,-1.9
2018-02-22T00:00:49.805Z,-1.89
2018-02-22T00:00:53.720Z,-1.86
2018-02-22T00:00:57.845Z,-1.86
2018-02-22T00:01:01.845Z,-1.85
2018-02-22T00:01:06.005Z,-1.92
2018-02-22T00:01:10.135Z,-1.9
2018-02-22T00:01:14.368Z,-1.88
2018-02-22T00:01:18.066Z,-1.93
2018-02-22T00:01:22.090Z,-1.89
2018-02-22T00:01:26.199Z,-1.85
2018-02-22T00:01:30.241Z,-1.86
2018-02-22T00:01:34.272Z,-1.89
2018-02-22T00:01:38.087Z,-1.93
2018-02-22T00:01:42.225Z,-1.95
2018-02-22T00:01:46.463Z,-1.95
2018-02-22T00:01:50.486Z,-1.88
2018-02-22T00:01:54.495Z,-1.89
2018-02-22T00:01:58.735Z,-1.88
2018-02-22T00:02:02.971Z,-1.92
2018-02-22T00:02:06.980Z,-1.85
2018-02-22T00:02:10.891Z,-1.86
2018-02-22T00:02:15.048Z,-1.95
2018-02-22T00:02:19.076Z,-1.86
2018-02-22T00:02:23.309Z,-1.92
2018-02-22T00:02:27.444Z,-1.89
2018-02-22T00:02:31.577Z,-1.88
2018-02-22T00:02:35.486Z,-1.86
2018-02-22T00:02:39.507Z,-1.89
2018-02-22T00:02:43.530Z,-1.9
2018-02-22T00:02:47.753Z,-1.89
2018-02-22T00:02:51.555Z,-1.85
2018-02-22T00:02:55.793Z,-1.89
2018-02-22T00:03:00.034Z,-1.9
2018-02-22T00:03:04.317Z,-1.95
2018-02-22T00:03:08.544Z,-1.89
2018-02-22T00:03:12.892Z,-1.86
2018-02-22T00:03:17.028Z,-1.95
2018-02-22T00:03:21.193Z,-1.9
2018-02-22T00:03:25.778Z,-1.96
2018-02-22T00:03:30.016Z,-1.89
2018-02-22T00:03:34.249Z,-1.89
2018-02-22T00:03:38.374Z,-1.89
2018-02-22T00:03:42.507Z,-1.93
2018-02-22T00:03:46.414Z,-1.98
2018-02-22T00:03:50.538Z,-1.92
2018-02-22T00:03:54.654Z,-1.92
2018-02-22T00:03:58.688Z,-1.93
2018-02-22T00:04:02.710Z,-1.85
2018-02-22T00:04:06.940Z,-1.9
2018-02-22T00:04:11.190Z,-1.93
2018-02-22T00:04:15.326Z,-1.95
2018-02-22T00:04:19.554Z,-1.93
2018-02-22T00:04:23.474Z,-1.88
2018-02-22T00:04:27.486Z,-1.92
2018-02-22T00:04:31.614Z,-1.89
2018-02-22T00:04:35.541Z,-1.96
2018-02-22T00:04:39.781Z,-1.89
2018-02-22T00:04:43.813Z,-1.85
2018-02-22T00:04:47.643Z,-1.88
2018-02-22T00:04:51.884Z,-1.98
2018-02-22T00:04:55.901Z,-1.92
2018-02-22T00:05:00.029Z,-1.92
2018-02-22T00:05:04.046Z,-1.96
2018-02-22T00:05:08.070Z,-1.95
2018-02-22T00:05:12.093Z,-1.92
2018-02-22T00:05:16.227Z,-1.95
2018-02-22T00:05:20.464Z,-1.95
2018-02-22T00:05:24.697Z,-2
2018-02-22T00:05:28.846Z,-1.95
2018-02-22T00:05:32.762Z,-1.92
2018-02-22T00:05:36.791Z,-1.92
2018-02-22T00:05:40.616Z,-1.92
2018-02-22T00:05:44.661Z,-1.98
2018-02-22T00:05:48.672Z,-1.95
2018-02-22T00:05:52.799Z,-1.92
2018-02-22T00:05:56.822Z,-1.95
2018-02-22T00:06:00.731Z,-1.92
2018-02-22T00:06:04.999Z,-2.01
2018-02-22T00:06:08.926Z,-2.01
2018-02-22T00:06:12.728Z,-2.01
2018-02-22T00:06:16.638Z,-1.95
2018-02-22T00:06:20.776Z,-2.01
2018-02-22T00:06:24.905Z,-1.96
2018-02-22T00:06:29.045Z,-2.08
2018-02-22T00:06:33.175Z,-2
2018-02-22T00:06:37.306Z,-1.96
2018-02-22T00:06:41.222Z,-1.96
2018-02-22T00:06:45.244Z,-2.04
2018-02-22T00:06:49.059Z,-2.01
2018-02-22T00:06:53.203Z,-2.04
2018-02-22T00:06:57.233Z,-2.1
2018-02-22T00:07:01.155Z,-2.01
2018-02-22T00:07:05.179Z,-2.01
2018-02-22T00:07:09.411Z,-2.03
2018-02-22T00:07:13.640Z,-2
2018-02-22T00:07:17.545Z,-2.01
2018-02-22T00:07:21.658Z,-2.01
2018-02-22T00:07:25.568Z,-2.01
2018-02-22T00:07:29.579Z,-2.06
2018-02-22T00:07:33.594Z,-2.07
2018-02-22T00:07:37.750Z,-1.96
2018-02-22T00:07:41.772Z,-1.96
2018-02-22T00:07:45.890Z,-1.93
2018-02-22T00:07:49.799Z,-2.01
2018-02-22T00:07:53.818Z,-2.01
2018-02-22T00:07:57.944Z,-2.06
2018-02-22T00:08:02.052Z,-2.04
2018-02-22T00:08:06.207Z,-2.03
2018-02-22T00:08:10.242Z,-2.03
2018-02-22T00:08:14.374Z,-2.06
2018-02-22T00:08:18.516Z,-2.03
2018-02-22T00:08:22.540Z,-2.04
2018-02-22T00:08:26.564Z,-2.04
2018-02-22T00:08:30.376Z,-2.03
2018-02-22T00:08:34.508Z,-2.07
2018-02-22T00:08:38.808Z,-2.01
2018-02-22T00:08:42.941Z,-2.13
2018-02-22T00:08:47.287Z,-2.04
2018-02-22T00:08:51.423Z,-2.06
2018-02-22T00:08:55.559Z,-2.07
2018-02-22T00:08:59.859Z,-2.01
2018-02-22T00:09:04.147Z,-2
2018-02-22T00:09:08.383Z,-2
2018-02-22T00:09:12.418Z,-2.06
2018-02-22T00:09:16.662Z,-2.1
2018-02-22T00:09:20.686Z,-2.08
2018-02-22T00:09:24.920Z,-2.1
2018-02-22T00:09:28.842Z,-2.01
2018-02-22T00:09:32.878Z,-2.07
2018-02-22T00:09:37.217Z,-2.11
2018-02-22T00:09:41.351Z,-2.1
2018-02-22T00:09:45.604Z,-2.04
2018-02-22T00:09:49.628Z,-2.01
2018-02-22T00:09:53.885Z,-2.06
2018-02-22T00:09:58.218Z,-2.1
2018-02-22T00:10:02.873Z,-2.06
2018-02-22T00:10:07.095Z,-2.11
2018-02-22T00:10:11.124Z,-2.13
2018-02-22T00:10:15.367Z,-2.07
2018-02-22T00:10:19.384Z,-2.1
2018-02-22T00:10:23.541Z,-2.04
2018-02-22T00:10:27.662Z,-2.11
2018-02-22T00:10:31.664Z,-2.13
2018-02-22T00:10:35.801Z,-2.11
2018-02-22T00:10:40.046Z,-2.04
2018-02-22T00:10:44.184Z,-2.04
2018-02-22T00:10:48.195Z,-2.13
2018-02-22T00:10:52.426Z,-2.07
2018-02-22T00:10:56.570Z,-2.1
2018-02-22T00:11:00.800Z,-2.06
2018-02-22T00:11:05.189Z,-2.14
2018-02-22T00:11:09.448Z,-2.07
2018-02-22T00:11:13.630Z,-2.14
2018-02-22T00:11:17.757Z,-2.18
2018-02-22T00:11:21.984Z,-2.1
2018-02-22T00:11:26.111Z,-2.06
2018-02-22T00:11:29.988Z,-2.18
2018-02-22T00:11:34.212Z,-2.08
2018-02-22T00:11:38.460Z,-2.14
2018-02-22T00:11:42.700Z,-2.1
2018-02-22T00:11:46.832Z,-2.14
2018-02-22T00:11:50.844Z,-2.08
2018-02-22T00:11:55.085Z,-2.13
2018-02-22T00:11:59.007Z,-2.14
2018-02-22T00:12:03.332Z,-2.13
2018-02-22T00:12:07.565Z,-2.13
2018-02-22T00:12:11.676Z,-2.22
2018-02-22T00:12:15.801Z,-2.18
2018-02-22T00:12:19.909Z,-2.18
2018-02-22T00:12:24.265Z,-2.1
2018-02-22T00:12:28.622Z,-2.16
2018-02-22T00:12:32.645Z,-2.25
2018-02-22T00:12:36.461Z,-2.19
2018-02-22T00:12:40.369Z,-2.24
2018-02-22T00:12:44.392Z,-2.22
2018-02-22T00:12:48.438Z,-2.18
2018-02-22T00:12:52.452Z,-2.19
2018-02-22T00:12:56.698Z,-2.19
2018-02-22T00:13:00.920Z,-2.21
2018-02-22T00:13:05.244Z,-2.24
2018-02-22T00:13:09.582Z,-2.13
2018-02-22T00:13:13.818Z,-2.19
2018-02-22T00:13:18.062Z,-2.19
2018-02-22T00:13:22.213Z,-2.18
2018-02-22T00:13:26.343Z,-2.19
2018-02-22T00:13:30.271Z,-2.21
2018-02-22T00:13:33.964Z,-2.24
2018-02-22T00:13:38.300Z,-2.21
2018-02-22T00:13:42.324Z,-2.22
2018-02-22T00:13:46.565Z,-2.22
2018-02-22T00:13:50.696Z,-2.21
2018-02-22T00:13:54.822Z,-2.22
2018-02-22T00:13:58.848Z,-2.22
2018-02-22T00:14:03.095Z,-2.26
2018-02-22T00:14:06.893Z,-2.22
2018-02-22T00:14:11.025Z,-2.21
2018-02-22T00:14:15.265Z,-2.22
2018-02-22T00:14:19.400Z,-2.32
2018-02-22T00:14:23.522Z,-2.21
2018-02-22T00:14:27.330Z,-2.24
2018-02-22T00:14:31.468Z,-2.24
2018-02-22T00:14:35.487Z,-2.21
2018-02-22T00:14:39.404Z,-2.13
2018-02-22T00:14:43.657Z,-2.24
2018-02-22T00:14:47.890Z,-2.28
2018-02-22T00:14:52.033Z,-2.16
2018-02-22T00:14:56.049Z,-2.26
2018-02-22T00:15:00.068Z,-2.19
2018-02-22T00:15:04.207Z,-2.25
2018-02-22T00:15:08.565Z,-2.25
2018-02-22T00:15:12.699Z,-2.24
2018-02-22T00:15:16.845Z,-2.13
2018-02-22T00:15:20.868Z,-2.32
2018-02-22T00:15:24.897Z,-2.18
2018-02-22T00:15:28.924Z,-2.22
2018-02-22T00:15:33.058Z,-2.22
2018-02-22T00:15:37.299Z,-2.32
2018-02-22T00:15:41.431Z,-2.26
2018-02-22T00:15:45.583Z,-2.33
2018-02-22T00:15:49.605Z,-2.21
2018-02-22T00:15:53.835Z,-2.22
2018-02-22T00:15:57.862Z,-2.24
2018-02-22T00:16:01.778Z,-2.25
2018-02-22T00:16:06.103Z,-2.13
2018-02-22T00:16:10.260Z,-2.33
2018-02-22T00:16:14.495Z,-2.26
2018-02-22T00:16:18.623Z,-2.28
2018-02-22T00:16:22.955Z,-2.32
2018-02-22T00:16:26.872Z,-2.22
2018-02-22T00:16:31.013Z,-2.33
2018-02-22T00:16:35.133Z,-2.16
2018-02-22T00:16:39.158Z,-2.28
2018-02-22T00:16:43.285Z,-2.21
2018-02-22T00:16:47.105Z,-2.13
2018-02-22T00:16:51.143Z,-2.16
2018-02-22T00:16:55.379Z,-2.18
2018-02-22T00:16:59.312Z,-2.16
2018-02-22T00:17:03.322Z,-2.21
2018-02-22T00:17:07.351Z,-2.21
2018-02-22T00:17:11.477Z,-2.25
2018-02-22T00:17:15.489Z,-2.18
2018-02-22T00:17:19.614Z,-2.32
2018-02-22T00:17:23.633Z,-2.24
2018-02-22T00:17:27.780Z,-2.13
2018-02-22T00:17:31.804Z,-2.29
2018-02-22T00:17:35.836Z,-2.25
2018-02-22T00:17:39.888Z,-2.32
2018-02-22T00:17:44.124Z,-2.22
2018-02-22T00:17:47.921Z,-2.24
2018-02-22T00:17:52.259Z,-2.25
2018-02-22T00:17:56.601Z,-2.18
2018-02-22T00:18:00.520Z,-2.24
2018-02-22T00:18:04.752Z,-2.19
2018-02-22T00:18:08.779Z,-2.22
2018-02-22T00:18:12.678Z,-2.25
2018-02-22T00:18:16.679Z,-2.32
2018-02-22T00:18:20.715Z,-2.29
2018-02-22T00:18:24.747Z,-2.24
2018-02-22T00:18:28.868Z,-2.16
2018-02-22T00:18:32.884Z,-2.21
2018-02-22T00:18:37.022Z,-2.13
2018-02-22T00:18:40.918Z,-2.28
2018-02-22T00:18:45.060Z,-2.29
2018-02-22T00:18:49.316Z,-2.14
2018-02-22T00:18:53.680Z,-2.11
2018-02-22T00:18:57.720Z,-2.26
2018-02-22T00:19:02.316Z,-2.14
2018-02-22T00:19:06.667Z,-2.22
2018-02-22T00:19:10.693Z,-2.19
2018-02-22T00:19:14.719Z,-2.18
2018-02-22T00:19:18.625Z,-2.22
2018-02-22T00:19:22.847Z,-2.32
2018-02-22T00:19:26.868Z,-2.19
2018-02-22T00:19:31.010Z,-2.22
2018-02-22T00:19:35.250Z,-2.13
2018-02-22T00:19:39.376Z,-2.24
2018-02-22T00:19:43.500Z,-2.21
2018-02-22T00:19:47.749Z,-2.25
2018-02-22T00:19:51.772Z,-2.22
2018-02-22T00:19:55.780Z,-2.14
2018-02-22T00:19:59.686Z,-2.21
2018-02-22T00:20:03.784Z,-2.19
2018-02-22T00:20:07.814Z,-2.28
2018-02-22T00:20:11.845Z,-2.19
2018-02-22T00:20:15.975Z,-2.26
2018-02-22T00:20:20.011Z,-2.18
2018-02-22T00:20:24.150Z,-2.22
2018-02-22T00:20:28.076Z,-2.28
2018-02-22T00:20:32.102Z,-2.33
2018-02-22T00:20:36.127Z,-2.21
2018-02-22T00:20:40.362Z,-2.19
2018-02-22T00:20:44.379Z,-2.18
2018-02-22T00:20:48.517Z,-2.25
2018-02-22T00:20:52.647Z,-2.26
2018-02-22T00:20:56.993Z,-2.24
2018-02-22T00:21:01.121Z,-2.25
2018-02-22T00:21:05.289Z,-2.13
2018-02-22T00:21:09.419Z,-2.29
2018-02-22T00:21:13.650Z,-2.24
2018-02-22T00:21:17.884Z,-2.35
2018-02-22T00:21:21.913Z,-2.19
2018-02-22T00:21:25.818Z,-2.19
2018-02-22T00:21:29.860Z,-2.26
2018-02-22T00:21:33.710Z,-2.21
2018-02-22T00:21:37.625Z,-2.26
2018-02-22T00:21:41.864Z,-2.18
2018-02-22T00:21:45.878Z,-2.24
2018-02-22T00:21:50.009Z,-2.24
2018-02-22T00:21:53.705Z,-2.28
2018-02-22T00:21:57.836Z,-2.22
2018-02-22T00:22:02.159Z,-2.28
2018-02-22T00:22:06.301Z,-2.25
2018-02-22T00:22:10.197Z,-2.25
2018-02-22T00:22:14.217Z,-2.1
2018-02-22T00:22:18.443Z,-2.18
2018-02-22T00:22:22.447Z,-2.22
2018-02-22T00:22:26.663Z,-2.26
2018-02-22T00:22:30.598Z,-2.26
2018-02-22T00:22:34.755Z,-2.25
2018-02-22T00:22:38.890Z,-2.29
2018-02-22T00:22:43.140Z,-2.29
2018-02-22T00:22:47.259Z,-2.24
2018-02-22T00:22:51.497Z,-2.22
2018-02-22T00:22:55.527Z,-2.16
2018-02-22T00:22:59.653Z,-2.21
2018-02-22T00:23:03.666Z,-2.24
2018-02-22T00:23:07.482Z,-2.16
2018-02-22T00:23:11.517Z,-2.24
2018-02-22T00:23:15.463Z,-2.19
2018-02-22T00:23:19.252Z,-2.24
2018-02-22T00:23:23.166Z,-2.24
2018-02-22T00:23:27.201Z,-2.21
2018-02-22T00:23:31.547Z,-2.25
2018-02-22T00:23:35.690Z,-2.25
2018-02-22T00:23:39.918Z,-2.21
2018-02-22T00:23:44.159Z,-2.26
2018-02-22T00:23:48.309Z,-2.1
2018-02-22T00:23:52.460Z,-2.14
2018-02-22T00:23:56.598Z,-2.18
2018-02-22T00:24:00.835Z,-2.22
2018-02-22T00:24:04.752Z,-2.32
2018-02-22T00:24:08.873Z,-2.28
2018-02-22T00:24:12.804Z,-2.25
2018-02-22T00:24:16.813Z,-2.22
2018-02-22T00:24:20.732Z,-2.1
2018-02-22T00:24:24.611Z,-2.25
2018-02-22T00:24:28.632Z,-2.25
2018-02-22T00:24:32.578Z,-2.25
2018-02-22T00:24:36.823Z,-2.32
2018-02-22T00:24:40.854Z,-2.28
2018-02-22T00:24:45.085Z,-2.25
2018-02-22T00:24:49.318Z,-2.24
2018-02-22T00:24:53.331Z,-2.26
2018-02-22T00:24:57.454Z,-2.32
2018-02-22T00:25:01.482Z,-2.21
2018-02-22T00:25:05.609Z,-2.16
2018-02-22T00:25:09.630Z,-2.24
2018-02-22T00:25:13.882Z,-2.29
2018-02-22T00:25:17.796Z,-2.24
2018-02-22T00:25:22.024Z,-2.24
2018-02-22T00:25:26.156Z,-2.28
2018-02-22T00:25:30.285Z,-2.26
2018-02-22T00:25:34.528Z,-2.14
2018-02-22T00:25:38.772Z,-2.26
2018-02-22T00:25:43.102Z,-2.26
2018-02-22T00:25:47.452Z,-2.32
2018-02-22T00:25:51.615Z,-2.28
2018-02-22T00:25:55.968Z,-2.32
2018-02-22T00:26:00.202Z,-2.14
2018-02-22T00:26:04.111Z,-2.24
2018-02-22T00:26:07.924Z,-2.18
2018-02-22T00:26:11.945Z,-2.29
2018-02-22T00:26:16.058Z,-2.24
2018-02-22T00:26:20.296Z,-2.22
2018-02-22T00:26:24.445Z,-2.19
2018-02-22T00:26:28.694Z,-2.32
2018-02-22T00:26:32.740Z,-2.26
2018-02-22T00:26:36.858Z,-2.14
2018-02-22T00:26:40.996Z,-2.32
2018-02-22T00:26:45.141Z,-2.18
2018-02-22T00:26:49.368Z,-2.18
2018-02-22T00:26:53.382Z,-2.29
2018-02-22T00:26:57.390Z,-2.18
2018-02-22T00:27:01.890Z,-2.21
2018-02-22T00:27:06.143Z,-2.24
2018-02-22T00:27:10.284Z,-2.24
2018-02-22T00:27:14.311Z,-2.28
2018-02-22T00:27:18.649Z,-2.24
2018-02-22T00:27:22.990Z,-2.19
2018-02-22T00:27:27.133Z,-2.26
2018-02-22T00:27:30.941Z,-2.22
2018-02-22T00:27:34.995Z,-2.24
2018-02-22T00:27:39.244Z,-2.29
2018-02-22T00:27:43.387Z,-2.26
2018-02-22T00:27:47.304Z,-2.24
2018-02-22T00:27:51.651Z,-2.22
2018-02-22T00:27:55.778Z,-2.28
2018-02-22T00:27:59.913Z,-2.16
2018-02-22T00:28:04.052Z,-2.25
2018-02-22T00:28:08.173Z,-2.21
2018-02-22T00:28:12.419Z,-2.18
2018-02-22T00:28:16.231Z,-2.24
2018-02-22T00:28:20.352Z,-2.24
2018-02-22T00:28:24.493Z,-2.24
2018-02-22T00:28:28.509Z,-2.19
2018-02-22T00:28:32.408Z,-2.18
2018-02-22T00:28:36.540Z,-2.26
2018-02-22T00:28:40.591Z,-2.1
2018-02-22T00:28:44.849Z,-2.16
2018-02-22T00:28:48.989Z,-2.21
2018-02-22T00:28:52.991Z,-2.19
2018-02-22T00:28:56.911Z,-2.19
2018-02-22T00:29:01.264Z,-2.26
2018-02-22T00:29:05.179Z,-2.16
2018-02-22T00:29:09.517Z,-2.22
2018-02-22T00:29:13.647Z,-2.14
2018-02-22T00:29:17.912Z,-2.24
2018-02-22T00:29:22.167Z,-2.24
2018-02-22T00:29:26.293Z,-2.13
2018-02-22T00:29:30.376Z,-2.22
2018-02-22T00:29:34.721Z,-2.19
2018-02-22T00:29:38.970Z,-2.24
2018-02-22T00:29:42.887Z,-2.22
2018-02-22T00:29:46.917Z,-2.22
2018-02-22T00:29:51.048Z,-2.19
2018-02-22T00:29:55.279Z,-2.16
2018-02-22T00:29:59.290Z,-2.13
2018-02-22T00:30:03.450Z,-2.18
2018-02-22T00:30:07.577Z,-2.19
2018-02-22T00:30:11.719Z,-2.19
2018-02-22T00:30:15.964Z,-2.24
2018-02-22T00:30:19.978Z,-2.25
2018-02-22T00:30:23.989Z,-2.16
2018-02-22T00:30:28.226Z,-2.22
2018-02-22T00:30:32.253Z,-2.18
2018-02-22T00:30:36.185Z,-2.24
2018-02-22T00:30:40.106Z,-2.18
2018-02-22T00:30:44.226Z,-2.21
2018-02-22T00:30:48.356Z,-2.21
2018-02-22T00:30:52.379Z,-2.19
2018-02-22T00:30:56.400Z,-2.19
2018-02-22T00:31:00.543Z,-2.21
2018-02-22T00:31:04.885Z,-2.21
2018-02-22T00:31:09.004Z,-2.19
2018-02-22T00:31:13.023Z,-2.13
2018-02-22T00:31:17.273Z,-2.19
2018-02-22T00:31:21.527Z,-2.14
2018-02-22T00:31:25.779Z,-2.21
2018-02-22T00:31:30.012Z,-2.19
2018-02-22T00:31:34.039Z,-2.16
2018-02-22T00:31:38.054Z,-2.19
2018-02-22T00:31:42.321Z,-2.11
2018-02-22T00:31:46.551Z,-2.11
2018-02-22T00:31:50.882Z,-2.16
2018-02-22T00:31:55.130Z,-2.19
2018-02-22T00:31:59.535Z,-2.18
2018-02-22T00:32:04.262Z,-2.21
2018-02-22T00:32:08.288Z,-2.19
2018-02-22T00:32:12.323Z,-2.19
2018-02-22T00:32:16.456Z,-2.14
2018-02-22T00:32:20.705Z,-2.21
2018-02-22T00:32:24.968Z,-2.16
2018-02-22T00:32:29.006Z,-2.11
2018-02-22T00:32:33.029Z,-2.21
2018-02-22T00:32:37.200Z,-2.16
2018-02-22T00:32:41.223Z,-2.19
2018-02-22T00:32:45.351Z,-2.18
2018-02-22T00:32:49.490Z,-2.16
2018-02-22T00:32:53.622Z,-2.11
2018-02-22T00:32:57.536Z,-2.1
2018-02-22T00:33:01.664Z,-2.19
2018-02-22T00:33:06.141Z,-2.13
2018-02-22T00:33:10.199Z,-2.21
2018-02-22T00:33:14.116Z,-2.1
2018-02-22T00:33:18.252Z,-2.08
2018-02-22T00:33:22.285Z,-2.21
2018-02-22T00:33:26.321Z,-2.13
2018-02-22T00:33:30.566Z,-2.13
2018-02-22T00:33:34.582Z,-2.1
2018-02-22T00:33:38.799Z,-2.13
2018-02-22T00:33:43.034Z,-2.11
2018-02-22T00:33:47.060Z,-2.19
2018-02-22T00:33:51.302Z,-2.24
2018-02-22T00:33:55.331Z,-2.18
2018-02-22T00:33:59.468Z,-2.14
2018-02-22T00:34:03.812Z,-2.1
2018-02-22T00:34:07.621Z,-2.07
2018-02-22T00:34:11.762Z,-2.08
2018-02-22T00:34:15.766Z,-2.1
2018-02-22T00:34:19.778Z,-2.14
2018-02-22T00:34:24.135Z,-2.14
2018-02-22T00:34:28.257Z,-2.08
2018-02-22T00:34:32.179Z,-2.08
2018-02-22T00:34:36.333Z,-2.1
2018-02-22T00:34:40.360Z,-2.22
2018-02-22T00:34:44.388Z,-2.08
2018-02-22T00:34:48.725Z,-2.08
2018-02-22T00:34:52.971Z,-2.07
2018-02-22T00:34:57.226Z,-2.13
2018-02-22T00:35:01.472Z,-2.07
2018-02-22T00:35:05.615Z,-2.08
2018-02-22T00:35:09.852Z,-2.18
2018-02-22T00:35:14.082Z,-2.11
2018-02-22T00:35:18.108Z,-2.16
2018-02-22T00:35:22.357Z,-2.13
2018-02-22T00:35:26.370Z,-2.13
2018-02-22T00:35:30.499Z,-2.16
2018-02-22T00:35:34.513Z,-2.13
2018-02-22T00:35:38.762Z,-2.07
2018-02-22T00:35:42.901Z,-2.1
2018-02-22T00:35:47.147Z,-2.11
2018-02-22T00:35:51.381Z,-2.11
2018-02-22T00:35:55.726Z,-2.13
2018-02-22T00:35:59.653Z,-2.13
2018-02-22T00:36:03.734Z,-2.16
2018-02-22T00:36:07.759Z,-2.11
2018-02-22T00:36:11.780Z,-2.11
2018-02-22T00:36:15.693Z,-2.25
2018-02-22T00:36:19.823Z,-2.1
2018-02-22T00:36:23.856Z,-2.13
2018-02-22T00:36:27.672Z,-2.08
2018-02-22T00:36:31.795Z,-2.13
2018-02-22T00:36:35.741Z,-2.1
2018-02-22T00:36:39.645Z,-2.13
2018-02-22T00:36:43.773Z,-2.08
2018-02-22T00:36:47.905Z,-2.08
2018-02-22T00:36:52.138Z,-2.13
2018-02-22T00:36:56.265Z,-2.1
2018-02-22T00:37:00.276Z,-2.14
2018-02-22T00:37:04.554Z,-2.1
2018-02-22T00:37:08.659Z,-2.13
2018-02-22T00:37:12.884Z,-2.14
2018-02-22T00:37:16.930Z,-2.22
2018-02-22T00:37:21.064Z,-2.11
2018-02-22T00:37:25.297Z,-2.11
2018-02-22T00:37:29.635Z,-2.19
2018-02-22T00:37:33.777Z,-2.06
2018-02-22T00:37:38.027Z,-2.11
2018-02-22T00:37:42.162Z,-2.13
2018-02-22T00:37:46.290Z,-2.13
2018-02-22T00:37:50.545Z,-2.14
2018-02-22T00:37:54.674Z,-2.16
2018-02-22T00:37:58.606Z,-2.07
2018-02-22T00:38:02.793Z,-2.11
2018-02-22T00:38:06.918Z,-2.1
2018-02-22T00:38:11.143Z,-2.1
2018-02-22T00:38:15.150Z,-2.13
2018-02-22T00:38:19.390Z,-2.18
2018-02-22T00:38:23.514Z,-2.07
2018-02-22T00:38:27.758Z,-2.13
2018-02-22T00:38:32.097Z,-2.24
2018-02-22T00:38:36.338Z,-2.13
2018-02-22T00:38:40.484Z,-2.21
2018-02-22T00:38:44.500Z,-2.11
2018-02-22T00:38:48.756Z,-2.08
2018-02-22T00:38:52.993Z,-2.07
2018-02-22T00:38:57.342Z,-2.13
2018-02-22T00:39:01.471Z,-2.08
2018-02-22T00:39:05.809Z,-2.11
2018-02-22T00:39:10.050Z,-2.24
2018-02-22T00:39:14.073Z,-2.1
2018-02-22T00:39:18.088Z,-2.11
2018-02-22T00:39:22.229Z,-2.07
2018-02-22T00:39:26.252Z,-2.13
2018-02-22T00:39:30.054Z,-2.07
2018-02-22T00:39:33.963Z,-2.11
2018-02-22T00:39:37.871Z,-2.24
2018-02-22T00:39:41.898Z,-2.16
2018-02-22T00:39:45.701Z,-2.1
2018-02-22T00:39:49.932Z,-2.14
2018-02-22T00:39:53.947Z,-2.21
2018-02-22T00:39:57.984Z,-2.16
2018-02-22T00:40:02.212Z,-2.16
2018-02-22T00:40:06.354Z,-2.13
2018-02-22T00:40:10.285Z,-2.14
2018-02-22T00:40:14.409Z,-2.13
2018-02-22T00:40:18.440Z,-2.22
2018-02-22T00:40:22.461Z,-2.11
2018-02-22T00:40:26.700Z,-2.19
2018-02-22T00:40:30.721Z,-2.21
2018-02-22T00:40:34.743Z,-2.14
2018-02-22T00:40:38.788Z,-2.22
2018-02-22T00:40:42.932Z,-2.24
2018-02-22T00:40:47.060Z,-2.16
2018-02-22T00:40:51.334Z,-2.24
2018-02-22T00:40:55.736Z,-2.21
2018-02-22T00:40:59.831Z,-2.19
2018-02-22T00:41:03.980Z,-2.21
2018-02-22T00:41:08.115Z,-2.25
2018-02-22T00:41:12.133Z,-2.22
2018-02-22T00:41:16.270Z,-2.24
2018-02-22T00:41:20.394Z,-2.1
2018-02-22T00:41:24.411Z,-2.19
2018-02-22T00:41:28.435Z,-2.19
2018-02-22T00:41:32.459Z,-2.16
2018-02-22T00:41:36.380Z,-2.16
2018-02-22T00:41:40.711Z,-2.21
2018-02-22T00:41:44.627Z,-2.21
2018-02-22T00:41:48.641Z,-2.24
2018-02-22T00:41:52.986Z,-2.19
2018-02-22T00:41:57.213Z,-2.19
2018-02-22T00:42:01.455Z,-2.21
2018-02-22T00:42:05.586Z,-2.14
2018-02-22T00:42:09.776Z,-2.21
2018-02-22T00:42:13.903Z,-2.19
2018-02-22T00:42:18.043Z,-2.22
2018-02-22T00:42:22.385Z,-2.25
2018-02-22T00:42:26.514Z,-2.19
2018-02-22T00:42:30.745Z,-2.18
2018-02-22T00:42:34.884Z,-2.24
2018-02-22T00:42:39.018Z,-2.19
2018-02-22T00:42:42.823Z,-2.24
2018-02-22T00:42:47.068Z,-2.21
2018-02-22T00:42:51.093Z,-2.32
2018-02-22T00:42:55.139Z,-2.26
2018-02-22T00:42:59.181Z,-2.24
2018-02-22T00:43:03.320Z,-2.19
2018-02-22T00:43:07.672Z,-2.24
2018-02-22T00:43:11.804Z,-2.21
2018-02-22T00:43:15.832Z,-2.19
2018-02-22T00:43:19.960Z,-2.24
2018-02-22T00:43:23.985Z,-2.18
2018-02-22T00:43:27.999Z,-2.14
2018-02-22T00:43:32.256Z,-2.21
2018-02-22T00:43:36.496Z,-2.19
2018-02-22T00:43:40.735Z,-2.29
2018-02-22T00:43:44.875Z,-2.16
2018-02-22T00:43:49.019Z,-2.19
2018-02-22T00:43:53.172Z,-2.13
2018-02-22T00:43:57.414Z,-2.21
2018-02-22T00:44:01.446Z,-2.24
2018-02-22T00:44:05.679Z,-2.21
2018-02-22T00:44:09.823Z,-2.21
2018-02-22T00:44:13.737Z,-2.32
2018-02-22T00:44:17.872Z,-2.29
2018-02-22T00:44:22.099Z,-2.28
2018-02-22T00:44:26.237Z,-2.18
2018-02-22T00:44:30.349Z,-2.25
2018-02-22T00:44:34.386Z,-2.33
2018-02-22T00:44:38.626Z,-2.21
2018-02-22T00:44:42.745Z,-2.25
2018-02-22T00:44:46.977Z,-2.22
2018-02-22T00:44:51.098Z,-2.24
2018-02-22T00:44:55.249Z,-2.18
2018-02-22T00:44:59.387Z,-2.18
2018-02-22T00:45:03.416Z,-2.29
2018-02-22T00:45:07.439Z,-2.14
2018-02-22T00:45:11.452Z,-2.19
2018-02-22T00:45:15.701Z,-2.26
2018-02-22T00:45:19.827Z,-2.13
2018-02-22T00:45:24.166Z,-2.21
2018-02-22T00:45:28.302Z,-2.18
2018-02-22T00:45:32.445Z,-2.22
2018-02-22T00:45:36.703Z,-2.25
2018-02-22T00:45:40.940Z,-2.1
2018-02-22T00:45:45.069Z,-2.21
2018-02-22T00:45:49.420Z,-2.21
2018-02-22T00:45:53.439Z,-2.1
2018-02-22T00:46:29.663Z,-2.22
2018-02-22T00:46:33.907Z,-2.28
2018-02-22T00:46:38.260Z,-2.25
2018-02-22T00:46:42.388Z,-2.19
2018-02-22T00:46:46.529Z,-2.26
2018-02-22T00:46:50.773Z,-2.32
2018-02-22T00:46:55.018Z,-2.28
2018-02-22T00:46:59.375Z,-2.24
2018-02-22T00:47:03.861Z,-2.28
2018-02-22T00:47:08.214Z,-2.25
2018-02-22T00:47:12.443Z,-2.28
2018-02-22T00:47:16.370Z,-2.18
2018-02-22T00:47:20.613Z,-2.26
2018-02-22T00:47:24.758Z,-2.25
2018-02-22T00:47:28.999Z,-2.19
2018-02-22T00:47:33.370Z,-2.25
2018-02-22T00:47:37.389Z,-2.18
2018-02-22T00:47:41.403Z,-2.14
2018-02-22T00:47:45.437Z,-2.33
2018-02-22T00:47:49.563Z,-2.24
2018-02-22T00:47:53.580Z,-2.24
2018-02-22T00:47:57.709Z,-2.22
2018-02-22T00:48:01.506Z,-2.25
2018-02-22T00:48:05.537Z,-2.25
2018-02-22T00:48:09.876Z,-2.24
2018-02-22T00:48:13.713Z,-2.14
2018-02-22T00:48:17.638Z,-2.21
2018-02-22T00:48:21.777Z,-2.18
2018-02-22T00:48:25.785Z,-2.22
2018-02-22T00:48:29.920Z,-2.25
2018-02-22T00:48:33.946Z,-2.24
2018-02-22T00:48:38.083Z,-2.16
2018-02-22T00:48:42.116Z,-2.26
2018-02-22T00:48:46.014Z,-2.14
2018-02-22T00:48:50.252Z,-2.16
2018-02-22T00:48:54.277Z,-2.22
2018-02-22T00:48:58.500Z,-2.25
2018-02-22T00:49:02.727Z,-2.25
2018-02-22T00:49:06.864Z,-2.22
2018-02-22T00:49:10.900Z,-2.25
2018-02-22T00:49:15.044Z,-2.19
2018-02-22T00:49:19.389Z,-2.19
2018-02-22T00:49:23.329Z,-2.11
2018-02-22T00:49:27.369Z,-2.16
2018-02-22T00:49:31.400Z,-2.19
2018-02-22T00:49:35.630Z,-2.29
2018-02-22T00:49:39.646Z,-2.18
2018-02-22T00:49:43.651Z,-2.24
2018-02-22T00:49:47.762Z,-2.19
2018-02-22T00:49:51.893Z,-2.33
2018-02-22T00:49:55.794Z,-2.32
2018-02-22T00:50:00.046Z,-2.21
2018-02-22T00:50:04.156Z,-2.24
2018-02-22T00:50:08.306Z,-2.19
2018-02-22T00:50:12.454Z,-2.28
2018-02-22T00:50:16.687Z,-2.35
2018-02-22T00:50:20.936Z,-2.21
2018-02-22T00:50:24.969Z,-2.29
2018-02-22T00:50:29.101Z,-2.33
2018-02-22T00:50:33.236Z,-2.37
2018-02-22T00:50:37.265Z,-2.35
2018-02-22T00:50:41.173Z,-2.29
2018-02-22T00:50:45.206Z,-2.22
2018-02-22T00:50:49.242Z,-2.24
2018-02-22T00:50:53.173Z,-2.37
2018-02-22T00:50:57.302Z,-2.35
2018-02-22T00:51:01.548Z,-2.25
2018-02-22T00:51:05.700Z,-2.33
2018-02-22T00:51:09.958Z,-2.35
2018-02-22T00:51:14.312Z,-2.29
2018-02-22T00:51:18.564Z,-2.37
2018-02-22T00:51:22.586Z,-2.32
2018-02-22T00:51:26.818Z,-2.29
2018-02-22T00:51:30.948Z,-2.32
2018-02-22T00:51:34.870Z,-2.26
2018-02-22T00:51:39.005Z,-2.29
2018-02-22T00:51:43.025Z,-2.32
2018-02-22T00:51:47.160Z,-2.41
2018-02-22T00:51:51.299Z,-2.33
2018-02-22T00:51:55.441Z,-2.35
2018-02-22T00:51:59.660Z,-2.29
2018-02-22T00:52:03.665Z,-2.33
2018-02-22T00:52:07.894Z,-2.26
2018-02-22T00:52:11.714Z,-2.25
2018-02-22T00:52:16.057Z,-2.35
2018-02-22T00:52:20.188Z,-2.29
2018-02-22T00:52:24.237Z,-2.32
2018-02-22T00:52:28.253Z,-2.28
2018-02-22T00:52:32.494Z,-2.26
2018-02-22T00:52:36.532Z,-2.25
2018-02-22T00:52:40.455Z,-2.28
2018-02-22T00:52:44.376Z,-2.24
2018-02-22T00:52:48.411Z,-2.32
2018-02-22T00:52:52.420Z,-2.24
2018-02-22T00:52:56.351Z,-2.32
2018-02-22T00:53:00.268Z,-2.33
2018-02-22T00:53:04.596Z,-2.33
2018-02-22T00:53:08.981Z,-2.35
2018-02-22T00:53:12.997Z,-2.37
2018-02-22T00:53:16.921Z,-2.37
2018-02-22T00:53:20.938Z,-2.29
2018-02-22T00:53:25.052Z,-2.33
2018-02-22T00:53:29.301Z,-2.37
2018-02-22T00:53:33.205Z,-2.35
2018-02-22T00:53:37.129Z,-2.37